Forside
METAR-TAF:

METAR-TAF

Lufthavne :

Pittsburgh International Airport

Pittsburgh, Pennsylvania, USA

Breddekreds: 40-30-14N, længdekreds: 080-15-59W, højde: 366 m

Aktuelle vejr

Denne rapport blev lavet for 12 minutter siden, kl. 10:51 UTC
Vind 6 kt fra nordnordøst
Temperatur 11°C
Fugtighed 100%
Tryk 1021 hPa
Sigt: 16.1 km
Nogle få skyer i en højde af 8500 ft
Overskyet i en højde af 20000 ft

METAR: KPIT 231051Z 02006KT 10SM FEW085 OVC200 11/11 A3016 RMK AO2 SLP220 T01110106 $

Tid: 07:03 (11:03 UTC)

Vejrudsigter

Denne rapport blev lavet for 2 timer og 7 minutter siden, kl. 08:56 UTC
Foreløbig gælder fra 23 på 09 UTC til 24 på 12 UTC
Vind 3 kt fra nordnordøst
Sigt: 10 km
Spredte skyer i en højde af 3500 ft
Brudte skyer i en højde af 8000 ft
Fra 23 på 2100 UTC
Vind 6 kt fra østsydøst
Sigt: 10 km
Spredte skyer i en højde af 5000 ft

TAF: KPIT 230856Z 2309/2412 03003KT P6SM SCT035 BKN080 FM232100 12006KT P6SM SCT050

Vejrobservationer og prognoser fra mere end 4000 lufthavne (METAR og TAF).

De gule og røde prikker repræsenterer de meteorologiske stationer.

Flyt musen over at se navnet på stationen.

Så klik over at se vejr observationer og prognoser.

At skifte det kort: Klik på de grønne knapper med et sort kors for at zoome ind; på den grønne knap med en bindestreg for at zoome ud; eller på de grønne pile for tilstødende kort.


METAR-TAF: